Terminal Aerodrome Forecast
Issued by NWS

Home | Current Version | Previous Version | Text Only | Print | Product List | Glossary On
Versions: 1 2 3 4 5 6 7 8 9 10 11 12 13 14 15
000
FTUS45 KRIW 081722
TAFRKS
TAF
KRKS 081722Z 0818/0918 VRB05KT 4SM BR FEW005
     FM081900 VRB05KT P6SM SCT100 BKN150
     FM082200 VRB05KT P6SM SCT040 BKN080
     FM090200 25007KT P6SM VCSH SCT025 BKN040
     FM090900 25012G22KT P6SM VCSH SCT025 BKN040=

USA.gov is the U.S. government's official web portal to all federal, state and local government web resources and services.